createdAt,value
2023-04-23T00:03:02.592Z,100979.13
2023-04-23T00:08:03.406Z,100979.78
2023-04-23T00:13:02.776Z,100983.47
2023-04-23T00:18:03.070Z,100968.34
2023-04-23T00:23:02.250Z,100982.13
2023-04-23T00:28:01.067Z,100973.06
2023-04-23T00:33:00.039Z,100982.72
2023-04-23T00:38:00.453Z,100975.19
2023-04-23T00:42:59.561Z,100975.75
2023-04-23T00:47:59.626Z,100981.72
2023-04-23T00:52:58.679Z,100981.91
2023-04-23T00:57:58.888Z,100974.31
2023-04-23T01:02:58.574Z,100978.34
2023-04-23T01:07:57.876Z,100971.75
2023-04-23T01:12:58.231Z,100971.13
2023-04-23T01:17:58.602Z,100982.50
2023-04-23T01:22:58.792Z,100964.56
2023-04-23T01:27:58.306Z,100973.19
2023-04-23T01:32:57.927Z,100982.78
2023-04-23T01:38:00.864Z,100979.75
2023-04-23T01:43:00.379Z,100981.00
2023-04-23T01:47:59.582Z,100983.91
2023-04-23T01:52:59.828Z,100983.53
2023-04-23T01:57:58.784Z,100986.72
2023-04-23T02:02:57.688Z,100989.47
2023-04-23T02:07:56.669Z,100986.81
2023-04-23T02:12:56.881Z,100991.78
2023-04-23T02:17:55.697Z,100993.09
2023-04-23T02:22:55.062Z,100989.22
2023-04-23T02:27:54.088Z,100994.38
2023-04-23T02:32:54.267Z,100992.88
2023-04-23T02:37:54.349Z,100994.91
2023-04-23T02:42:53.102Z,100996.00
2023-04-23T02:47:53.729Z,100998.84
2023-04-23T02:52:52.929Z,100993.56
2023-04-23T02:57:52.030Z,100996.22
2023-04-23T03:02:51.181Z,100996.88
2023-04-23T03:07:51.496Z,101001.91
2023-04-23T03:12:50.416Z,101001.81
2023-04-23T03:17:49.302Z,101005.97
2023-04-23T03:22:48.207Z,101009.38
2023-04-23T03:27:48.904Z,101016.25
2023-04-23T03:32:52.459Z,101024.19
2023-04-23T03:37:54.861Z,101021.53
2023-04-23T03:43:01.145Z,101018.75
2023-04-23T03:48:21.000Z,101024.03
2023-04-23T03:53:20.190Z,101030.81
2023-04-23T03:58:43.031Z,101033.41
2023-04-23T04:03:42.090Z,101044.63
2023-04-23T04:08:41.839Z,101047.97
2023-04-23T04:13:40.591Z,101052.13
2023-04-23T04:18:40.738Z,101050.16
2023-04-23T04:23:39.996Z,101053.47
2023-04-23T04:28:38.709Z,101062.81
2023-04-23T04:33:39.869Z,101059.06
2023-04-23T04:38:39.995Z,101059.63
2023-04-23T04:43:39.150Z,101067.41
2023-04-23T04:48:37.857Z,101072.84
2023-04-23T04:53:37.171Z,101067.41
2023-04-23T04:58:37.597Z,101068.84
2023-04-23T05:03:37.939Z,101063.44
2023-04-23T05:08:37.001Z,101073.66
2023-04-23T05:13:37.234Z,101079.44
2023-04-23T05:18:36.335Z,101064.16
2023-04-23T05:23:35.711Z,101070.66
2023-04-23T05:28:34.805Z,101070.31
2023-04-23T05:33:46.322Z,101070.78
2023-04-23T05:38:50.660Z,101072.78
2023-04-23T05:43:50.821Z,101081.69
2023-04-23T05:48:56.432Z,101083.66
2023-04-23T05:53:57.448Z,101078.25
2023-04-23T05:58:57.169Z,101075.06
2023-04-23T06:03:57.990Z,101075.59
2023-04-23T06:09:04.707Z,101079.88
2023-04-23T06:14:04.236Z,101082.56
2023-04-23T06:19:04.845Z,101080.00
2023-04-23T06:24:03.910Z,101075.47
2023-04-23T06:29:03.915Z,101077.19
2023-04-23T06:34:15.740Z,101077.19
2023-04-23T06:39:16.448Z,101076.06
2023-04-23T06:44:16.149Z,101069.72
2023-04-23T06:49:28.030Z,101065.72
2023-04-23T06:54:32.544Z,101070.34
2023-04-23T06:59:33.590Z,101072.72
2023-04-23T07:04:40.208Z,101070.69
2023-04-23T07:09:39.546Z,101070.28
2023-04-23T07:14:45.323Z,101068.81
2023-04-23T07:20:04.289Z,101067.97
2023-04-23T07:25:04.453Z,101067.00
2023-04-23T07:30:08.844Z,101063.13
2023-04-23T07:35:15.332Z,101066.31
2023-04-23T07:40:19.639Z,101064.75
2023-04-23T07:45:19.539Z,101058.88
2023-04-23T07:50:26.371Z,101056.09
2023-04-23T07:55:26.903Z,101052.22
2023-04-23T08:00:30.936Z,101051.59
2023-04-23T08:05:31.483Z,101044.22
2023-04-23T08:10:36.667Z,101045.59
2023-04-23T08:15:38.269Z,101044.13
2023-04-23T08:20:42.331Z,101045.28
2023-04-23T08:25:46.516Z,101039.56
2023-04-23T08:30:50.895Z,101043.66
2023-04-23T08:35:58.260Z,101030.91
2023-04-23T08:41:04.426Z,101023.50
2023-04-23T08:46:09.361Z,101025.28
2023-04-23T08:51:22.541Z,101027.03
2023-04-23T08:56:23.291Z,101019.69
2023-04-23T09:01:26.902Z,101014.75
2023-04-23T09:06:42.745Z,101012.75
2023-04-23T09:11:43.135Z,101005.34
2023-04-23T09:16:50.369Z,100997.66
2023-04-23T09:21:56.273Z,100996.78
2023-04-23T09:26:59.301Z,100996.88
2023-04-23T09:32:10.681Z,100982.72
2023-04-23T09:37:19.100Z,100988.25
2023-04-23T09:42:18.371Z,100974.00
2023-04-23T09:47:19.307Z,100968.84
2023-04-23T09:52:24.973Z,100964.47
2023-04-23T09:57:28.239Z,100960.28
2023-04-23T10:02:30.411Z,100951.50
2023-04-23T10:07:33.945Z,100948.00
2023-04-23T10:12:53.726Z,100950.13
2023-04-23T10:17:54.564Z,100941.09
2023-04-23T10:22:57.996Z,100932.47
2023-04-23T10:27:59.477Z,100917.69
2023-04-23T10:33:04.021Z,100918.03
2023-04-23T10:38:04.907Z,100913.06
2023-04-23T10:43:04.340Z,100909.03
2023-04-23T10:48:04.528Z,100904.19
2023-04-23T10:53:05.382Z,100904.69
2023-04-23T10:58:06.508Z,100899.41
2023-04-23T11:03:05.534Z,100888.16
2023-04-23T11:08:18.799Z,100879.31
2023-04-23T11:13:23.580Z,100874.31
2023-04-23T11:18:25.238Z,100868.59
2023-04-23T11:23:34.010Z,100869.94
2023-04-23T11:28:36.470Z,100873.63
2023-04-23T11:33:38.708Z,100868.06
2023-04-23T11:38:38.934Z,100863.50
2023-04-23T11:43:44.092Z,100866.69
2023-04-23T11:48:47.391Z,100861.72
2023-04-23T11:53:48.235Z,100857.44
2023-04-23T11:58:49.720Z,100858.38
2023-04-23T12:03:50.999Z,100842.69
2023-04-23T12:08:51.239Z,100838.53
2023-04-23T12:13:50.960Z,100831.63
2023-04-23T12:18:55.125Z,100821.16
2023-04-23T12:23:55.355Z,100813.59
2023-04-23T12:28:54.571Z,100805.31
2023-04-23T12:34:00.656Z,100808.84
2023-04-23T12:39:23.613Z,100797.63
2023-04-23T12:44:23.243Z,100801.56
2023-04-23T12:49:21.960Z,100786.25
2023-04-23T12:54:22.360Z,100792.72
2023-04-23T12:59:22.320Z,100787.56
2023-04-23T13:04:24.127Z,100777.78
2023-04-23T13:09:29.787Z,100768.66
2023-04-23T13:14:36.494Z,100764.19
2023-04-23T13:19:39.948Z,100761.94
2023-04-23T13:24:43.255Z,100758.09
2023-04-23T13:29:56.193Z,100750.56
2023-04-23T13:35:02.348Z,100746.31
2023-04-23T13:40:10.699Z,100745.22
2023-04-23T13:45:26.124Z,100740.03
2023-04-23T13:50:26.814Z,100744.75
2023-04-23T13:55:27.069Z,100740.75
2023-04-23T14:00:28.580Z,100739.09
2023-04-23T14:05:27.331Z,100738.84
2023-04-23T14:10:28.170Z,100732.22
2023-04-23T14:15:26.986Z,100728.19
2023-04-23T14:20:25.834Z,100730.72
2023-04-23T14:25:31.243Z,100725.16
2023-04-23T14:30:31.684Z,100728.69
2023-04-23T14:35:41.860Z,100731.25
2023-04-23T14:40:43.359Z,100721.88
2023-04-23T14:45:42.419Z,100723.59
2023-04-23T14:50:43.561Z,100722.03
2023-04-23T14:55:49.986Z,100720.94
2023-04-23T15:00:49.672Z,100722.63
2023-04-23T15:05:48.563Z,100719.13
2023-04-23T15:10:48.952Z,100709.47
2023-04-23T15:15:54.204Z,100703.91
2023-04-23T15:20:57.031Z,100706.88
2023-04-23T15:25:57.508Z,100701.19
2023-04-23T15:30:57.144Z,100705.94
2023-04-23T15:35:59.396Z,100699.53
2023-04-23T15:41:02.772Z,100701.16
2023-04-23T15:46:13.293Z,100705.53
2023-04-23T15:51:13.757Z,100709.59
2023-04-23T15:56:15.628Z,100708.94
2023-04-23T16:01:21.902Z,100704.75
2023-04-23T16:06:29.096Z,100706.91
2023-04-23T16:11:30.785Z,100701.97
2023-04-23T16:16:33.529Z,100695.34
2023-04-23T16:21:32.909Z,100700.75
2023-04-23T16:26:42.149Z,100699.38
2023-04-23T16:31:48.829Z,100702.44
2023-04-23T16:36:55.576Z,100702.75
2023-04-23T16:41:59.873Z,100708.59
2023-04-23T16:46:59.164Z,100713.47
2023-04-23T16:51:57.920Z,100718.84
2023-04-23T16:56:58.738Z,100721.69
2023-04-23T17:01:57.849Z,100737.69
2023-04-23T17:06:56.734Z,100732.38
2023-04-23T17:11:56.826Z,100737.13
2023-04-23T17:16:57.467Z,100743.69
2023-04-23T17:21:56.801Z,100739.41
2023-04-23T17:26:55.548Z,100742.63
2023-04-23T17:31:54.409Z,100746.50
2023-04-23T17:36:54.596Z,100753.16
2023-04-23T17:41:53.345Z,100754.47
2023-04-23T17:46:54.725Z,100760.47
2023-04-23T17:51:55.266Z,100766.81
2023-04-23T17:56:54.320Z,100777.34
2023-04-23T18:01:53.156Z,100781.59
2023-04-23T18:06:51.983Z,100789.16
2023-04-23T18:11:52.314Z,100787.50
2023-04-23T18:16:51.167Z,100785.31
2023-04-23T18:21:50.745Z,100801.59
2023-04-23T18:26:52.183Z,100796.56
2023-04-23T18:31:53.898Z,100801.44
2023-04-23T18:36:56.521Z,100804.91
2023-04-23T18:41:56.018Z,100794.34
2023-04-23T18:46:56.742Z,100805.97
2023-04-23T18:51:55.817Z,100805.00
2023-04-23T18:56:54.811Z,100815.44
2023-04-23T19:01:53.780Z,100801.81
2023-04-23T19:06:54.007Z,100809.31
2023-04-23T19:11:54.921Z,100808.94
2023-04-23T19:16:58.652Z,100807.16
2023-04-23T19:22:00.098Z,100804.84
2023-04-23T19:27:00.190Z,100808.63
2023-04-23T19:31:59.182Z,100800.13
2023-04-23T19:37:01.065Z,100794.59
2023-04-23T19:42:02.723Z,100787.81
2023-04-23T19:47:05.893Z,100789.13
2023-04-23T19:52:10.034Z,100797.22
2023-04-23T19:57:09.907Z,100788.53
2023-04-23T20:02:12.766Z,100789.75
2023-04-23T20:07:13.556Z,100783.47
2023-04-23T20:12:13.960Z,100775.69
2023-04-23T20:17:14.127Z,100775.19
2023-04-23T20:22:14.535Z,100761.53
2023-04-23T20:27:13.653Z,100758.69
2023-04-23T20:32:12.804Z,100761.94
2023-04-23T20:37:12.725Z,100768.22
2023-04-23T20:42:13.397Z,100761.84
2023-04-23T20:47:13.216Z,100760.13
2023-04-23T20:52:14.028Z,100761.72
2023-04-23T20:57:15.185Z,100763.75
2023-04-23T21:02:15.452Z,100761.94
2023-04-23T21:07:14.354Z,100771.47
2023-04-23T21:12:14.623Z,100766.59
2023-04-23T21:17:13.428Z,100758.44
2023-04-23T21:22:12.212Z,100771.47
2023-04-23T21:27:11.829Z,100758.19
2023-04-23T21:32:12.056Z,100762.25
2023-04-23T21:37:10.956Z,100751.84
2023-04-23T21:42:09.749Z,100745.41
2023-04-23T21:47:08.570Z,100742.84
2023-04-23T21:52:09.557Z,100749.97
2023-04-23T21:57:10.187Z,100754.31
2023-04-23T22:02:09.075Z,100742.81
2023-04-23T22:07:12.574Z,100743.41
2023-04-23T22:12:11.972Z,100737.81
2023-04-23T22:17:10.847Z,100736.81
2023-04-23T22:22:10.964Z,100735.56
2023-04-23T22:27:09.863Z,100730.44
2023-04-23T22:32:08.663Z,100732.00
2023-04-23T22:37:07.803Z,100731.91
2023-04-23T22:42:08.046Z,100733.59
2023-04-23T22:47:06.949Z,100725.97
2023-04-23T22:52:05.880Z,100723.41
2023-04-23T22:57:05.056Z,100716.44
2023-04-23T23:02:05.287Z,100721.44
2023-04-23T23:07:04.196Z,100718.50
2023-04-23T23:13:00.889Z,100716.88
2023-04-23T23:18:01.254Z,100719.88
2023-04-23T23:23:00.273Z,100723.13
2023-04-23T23:27:58.998Z,100720.47
2023-04-23T23:32:58.033Z,100725.91
2023-04-23T23:37:58.079Z,100715.59
2023-04-23T23:42:57.062Z,100708.13
2023-04-23T23:47:56.428Z,100704.69
2023-04-23T23:52:56.780Z,100698.44
2023-04-23T23:57:57.613Z,100690.97
